createdAt,value
2022-11-06T00:01:15.918Z,40.20
2022-11-06T00:03:44.690Z,41.35
2022-11-06T00:06:35.351Z,41.55
2022-11-06T00:09:10.616Z,41.78
2022-11-06T00:11:39.698Z,43.42
2022-11-06T00:14:07.044Z,41.50
2022-11-06T00:16:36.485Z,31.90
2022-11-06T00:19:06.905Z,37.50
2022-11-06T00:21:35.547Z,47.97
2022-11-06T00:24:06.956Z,36.10
2022-11-06T00:26:37.212Z,31.05
2022-11-06T00:29:07.550Z,37.97
2022-11-06T00:31:37.358Z,29.67
2022-11-06T00:34:08.828Z,30.38
2022-11-06T00:36:36.679Z,29.40
2022-11-06T00:39:04.256Z,30.77
2022-11-06T00:41:32.279Z,34.22
2022-11-06T00:44:01.749Z,42.55
2022-11-06T00:46:29.444Z,31.98
2022-11-06T00:48:57.262Z,37.00
2022-11-06T00:51:28.291Z,28.60
2022-11-06T00:54:02.536Z,30.35
2022-11-06T00:56:31.346Z,28.10
2022-11-06T00:59:06.385Z,27.42
2022-11-06T01:01:39.439Z,30.05
2022-11-06T01:04:10.928Z,35.25
2022-11-06T01:06:47.126Z,32.55
2022-11-06T01:09:19.725Z,27.73
2022-11-06T01:12:14.437Z,37.10
2022-11-06T01:14:43.022Z,37.25
2022-11-06T01:17:13.786Z,37.60
2022-11-06T01:19:41.220Z,38.35
2022-11-06T01:22:08.929Z,46.33
2022-11-06T01:24:38.568Z,38.58
2022-11-06T01:29:57.494Z,30.30
2022-11-06T01:32:30.508Z,35.00
2022-11-06T01:34:59.887Z,38.58
2022-11-06T01:37:27.249Z,35.35
2022-11-06T01:40:01.589Z,42.75
2022-11-06T01:42:31.398Z,41.90
2022-11-06T01:45:19.465Z,50.25
2022-11-06T01:47:47.177Z,36.08
2022-11-06T01:50:16.548Z,34.17
2022-11-06T01:52:47.795Z,33.17
2022-11-06T01:55:28.122Z,37.50
2022-11-06T01:58:01.790Z,37.47
2022-11-06T02:00:31.449Z,32.97
2022-11-06T02:03:02.668Z,31.60
2022-11-06T02:05:32.401Z,34.72
2022-11-06T02:08:00.892Z,42.45
2022-11-06T02:10:29.674Z,41.75
2022-11-06T02:13:46.041Z,36.22
2022-11-06T02:16:27.387Z,32.30
2022-11-06T02:18:54.489Z,32.78
2022-11-06T02:21:47.220Z,31.45
2022-11-06T02:24:52.884Z,37.17
2022-11-06T02:27:26.719Z,38.40
2022-11-06T02:30:03.839Z,32.55
2022-11-06T02:33:00.548Z,38.33
2022-11-06T02:35:49.345Z,28.08
2022-11-06T02:38:22.587Z,32.05
2022-11-06T02:40:54.373Z,34.42
2022-11-06T02:43:28.242Z,28.70
2022-11-06T02:45:59.461Z,30.55
2022-11-06T02:48:41.436Z,27.10
2022-11-06T02:51:12.443Z,31.77
2022-11-06T02:53:43.164Z,28.88
2022-11-06T02:56:18.324Z,29.80
2022-11-06T02:58:54.940Z,32.00
2022-11-06T03:01:37.286Z,35.88
2022-11-06T03:04:10.893Z,28.90
2022-11-06T03:06:54.546Z,34.35
2022-11-06T03:09:28.104Z,39.05
2022-11-06T03:12:40.839Z,26.45
2022-11-06T03:15:23.189Z,35.25
2022-11-06T03:18:07.284Z,28.33
2022-11-06T03:21:01.676Z,31.55
2022-11-06T03:23:40.053Z,24.80
2022-11-06T03:26:15.447Z,34.95
2022-11-06T03:28:53.172Z,28.35
2022-11-06T03:31:29.761Z,37.67
2022-11-06T03:34:07.499Z,34.97
2022-11-06T03:36:42.084Z,29.35
2022-11-06T03:39:15.466Z,33.08
2022-11-06T03:41:59.418Z,34.38
2022-11-06T03:44:29.391Z,44.10
2022-11-06T03:47:14.713Z,31.52
2022-11-06T03:49:50.854Z,31.83
2022-11-06T03:52:28.472Z,27.50
2022-11-06T03:55:19.276Z,29.17
2022-11-06T03:57:57.229Z,31.88
2022-11-06T04:00:26.965Z,33.65
2022-11-06T04:03:07.496Z,35.05
2022-11-06T04:05:40.981Z,26.98
2022-11-06T04:08:30.927Z,34.15
2022-11-06T04:11:20.693Z,25.67
2022-11-06T04:13:58.602Z,34.65
2022-11-06T04:16:28.030Z,30.05
2022-11-06T04:18:58.485Z,29.23
2022-11-06T04:21:53.424Z,22.45
2022-11-06T04:25:09.503Z,25.95
2022-11-06T04:27:59.330Z,26.00
2022-11-06T04:30:37.544Z,25.92
2022-11-06T04:33:24.828Z,30.95
2022-11-06T04:36:06.254Z,33.03
2022-11-06T04:38:37.955Z,29.02
2022-11-06T04:41:37.971Z,26.58
2022-11-06T04:44:24.154Z,22.80
2022-11-06T04:47:06.218Z,24.63
2022-11-06T04:49:36.293Z,28.20
2022-11-06T04:52:08.040Z,26.05
2022-11-06T04:54:37.444Z,25.98
2022-11-06T04:57:08.067Z,29.00
2022-11-06T04:59:37.016Z,26.73
2022-11-06T05:02:06.114Z,21.48
2022-11-06T05:04:33.776Z,26.73
2022-11-06T05:07:01.193Z,29.90
2022-11-06T05:09:28.394Z,25.17
2022-11-06T05:11:55.750Z,24.27
2022-11-06T05:14:22.859Z,31.75
2022-11-06T05:16:50.385Z,26.45
2022-11-06T05:19:17.514Z,40.03
2022-11-06T05:22:06.003Z,29.00
2022-11-06T05:24:35.433Z,49.55
2022-11-06T05:27:05.125Z,39.08
2022-11-06T05:29:34.590Z,28.58
2022-11-06T05:32:02.064Z,24.33
2022-11-06T05:34:31.389Z,36.42
2022-11-06T05:36:58.929Z,26.23
2022-11-06T05:39:26.315Z,23.85
2022-11-06T05:41:53.660Z,31.42
2022-11-06T05:44:21.091Z,32.78
2022-11-06T05:46:50.965Z,26.25
2022-11-06T05:49:20.557Z,34.72
2022-11-06T05:51:50.206Z,32.80
2022-11-06T05:54:21.709Z,32.60
2022-11-06T05:56:49.184Z,32.72
2022-11-06T05:59:16.244Z,27.90
2022-11-06T06:01:48.456Z,27.13
2022-11-06T06:04:15.875Z,27.50
2022-11-06T06:06:43.503Z,29.85
2022-11-06T06:09:10.740Z,28.80
2022-11-06T06:11:40.343Z,28.00
2022-11-06T06:14:07.684Z,32.67
2022-11-06T06:16:35.088Z,29.17
2022-11-06T06:19:02.438Z,29.95
2022-11-06T06:21:29.822Z,31.58
2022-11-06T06:23:56.877Z,45.53
2022-11-06T06:26:26.783Z,41.35
2022-11-06T06:28:53.901Z,60.10
2022-11-06T06:31:21.360Z,78.25
2022-11-06T06:33:48.605Z,76.03
2022-11-06T06:36:22.764Z,59.20
2022-11-06T06:38:49.973Z,69.47
2022-11-06T06:41:19.862Z,58.58
2022-11-06T06:43:49.782Z,70.13
2022-11-06T06:46:20.214Z,102.60
2022-11-06T06:48:47.898Z,53.10
2022-11-06T06:51:19.691Z,34.58
2022-11-06T06:53:50.935Z,43.47
2022-11-06T06:56:22.483Z,50.03
2022-11-06T06:58:49.930Z,40.13
2022-11-06T07:01:17.372Z,40.70
2022-11-06T07:03:46.991Z,40.05
2022-11-06T07:06:14.342Z,34.50
2022-11-06T07:08:44.057Z,81.95
2022-11-06T07:11:17.076Z,38.30
2022-11-06T07:13:44.228Z,62.25
2022-11-06T07:16:14.068Z,55.35
2022-11-06T07:18:41.463Z,59.22
2022-11-06T07:21:12.382Z,32.47
2022-11-06T07:23:41.700Z,62.63
2022-11-06T07:26:11.562Z,49.20
2022-11-06T07:28:38.786Z,55.95
2022-11-06T07:31:08.411Z,97.85
2022-11-06T07:33:36.166Z,69.40
2022-11-06T07:36:11.864Z,105.07
2022-11-06T07:38:42.771Z,80.43
2022-11-06T07:41:13.333Z,134.02
2022-11-06T07:43:43.754Z,56.75
2022-11-06T07:46:12.788Z,99.85
2022-11-06T07:48:40.014Z,119.03
2022-11-06T07:51:11.424Z,60.20
2022-11-06T07:53:39.361Z,91.43
2022-11-06T07:56:08.690Z,127.93
2022-11-06T07:58:38.778Z,65.85
2022-11-06T08:01:18.151Z,70.68
2022-11-06T08:03:45.926Z,77.68
2022-11-06T08:06:15.670Z,116.07
2022-11-06T08:08:45.265Z,51.65
2022-11-06T08:11:12.723Z,74.00
2022-11-06T08:13:44.023Z,46.90
2022-11-06T08:16:14.812Z,86.95
2022-11-06T08:18:44.775Z,87.38
2022-11-06T08:21:12.119Z,51.40
2022-11-06T08:23:44.081Z,87.95
2022-11-06T08:28:42.546Z,65.60
2022-11-06T08:31:10.359Z,101.35
2022-11-06T08:33:38.541Z,80.95
2022-11-06T08:36:07.529Z,75.30
2022-11-06T08:38:36.616Z,79.97
2022-11-06T08:41:08.300Z,65.13
2022-11-06T08:43:36.307Z,57.20
2022-11-06T08:46:10.013Z,60.40
2022-11-06T08:48:37.888Z,54.57
2022-11-06T08:51:06.201Z,58.60
2022-11-06T08:53:36.034Z,58.75
2022-11-06T08:56:05.138Z,57.80
2022-11-06T08:58:32.324Z,58.17
2022-11-06T09:01:02.026Z,61.20
2022-11-06T09:03:31.511Z,60.35
2022-11-06T09:06:01.008Z,58.10
2022-11-06T09:08:30.222Z,55.53
2022-11-06T09:10:59.852Z,57.05
2022-11-06T09:13:27.162Z,54.47
2022-11-06T09:15:57.060Z,59.83
2022-11-06T09:18:26.514Z,55.47
2022-11-06T09:20:59.179Z,59.78
2022-11-06T09:23:26.374Z,63.67
2022-11-06T09:25:56.493Z,51.35
2022-11-06T09:28:26.140Z,47.53
2022-11-06T09:30:56.142Z,56.85
2022-11-06T09:35:53.202Z,40.47
2022-11-06T09:38:22.776Z,43.88
2022-11-06T09:40:56.150Z,42.22
2022-11-06T09:46:31.963Z,41.25
2022-11-06T09:49:22.695Z,44.42
2022-11-06T09:52:03.086Z,43.38
2022-11-06T09:54:58.673Z,43.55
2022-11-06T09:57:27.580Z,36.10
2022-11-06T09:59:56.440Z,30.13
2022-11-06T10:02:34.911Z,31.85
2022-11-06T10:05:11.401Z,27.40
2022-11-06T10:07:43.953Z,29.77
2022-11-06T10:13:32.101Z,29.48
2022-11-06T10:16:26.754Z,25.95
2022-11-06T10:19:09.157Z,32.83
2022-11-06T10:21:39.820Z,33.45
2022-11-06T10:24:21.694Z,30.63
2022-11-06T10:27:00.938Z,28.27
2022-11-06T10:29:39.090Z,26.52
2022-11-06T10:32:21.022Z,31.67
2022-11-06T10:34:57.492Z,22.60
2022-11-06T10:37:31.315Z,25.45
2022-11-06T10:39:59.571Z,28.42
2022-11-06T10:42:37.998Z,32.33
2022-11-06T10:45:14.654Z,27.23
2022-11-06T10:48:05.823Z,26.67
2022-11-06T10:51:13.685Z,37.42
2022-11-06T10:54:22.720Z,27.35
2022-11-06T10:57:42.041Z,28.70
2022-11-06T11:00:13.848Z,29.15
2022-11-06T11:02:51.092Z,35.67
2022-11-06T11:05:21.054Z,21.20
2022-11-06T11:10:23.543Z,21.17
2022-11-06T11:12:54.061Z,17.63
2022-11-06T11:15:26.980Z,21.98
2022-11-06T11:18:31.673Z,15.60
2022-11-06T11:21:16.874Z,15.95
2022-11-06T11:24:13.781Z,14.75
2022-11-06T11:26:47.870Z,14.20
2022-11-06T11:29:28.865Z,7.45
2022-11-06T11:32:08.890Z,14.30
2022-11-06T11:34:51.361Z,14.27
2022-11-06T11:40:20.876Z,11.40
2022-11-06T11:42:48.545Z,21.85
2022-11-06T11:45:20.788Z,20.23
2022-11-06T11:47:51.273Z,17.33
2022-11-06T11:50:32.908Z,17.77
2022-11-06T11:53:14.706Z,12.35
2022-11-06T11:55:50.070Z,9.05
2022-11-06T11:58:27.285Z,11.13
2022-11-06T12:00:59.354Z,10.98
2022-11-06T12:03:37.856Z,8.50
2022-11-06T12:06:18.806Z,8.45
2022-11-06T12:08:52.717Z,12.25
2022-11-06T12:11:29.065Z,11.13
2022-11-06T12:14:21.503Z,7.78
2022-11-06T12:16:55.139Z,8.18
2022-11-06T12:19:30.579Z,11.48
2022-11-06T12:22:07.867Z,8.60
2022-11-06T12:24:50.231Z,6.28
2022-11-06T12:27:27.143Z,9.60
2022-11-06T12:30:02.996Z,8.13
2022-11-06T12:33:08.186Z,16.52
2022-11-06T12:35:41.480Z,5.07
2022-11-06T12:38:22.610Z,17.10
2022-11-06T12:41:15.505Z,15.32
2022-11-06T12:43:48.553Z,10.30
2022-11-06T12:46:35.493Z,19.33
2022-11-06T12:49:47.244Z,12.73
2022-11-06T12:52:36.534Z,8.13
2022-11-06T12:55:12.130Z,15.65
2022-11-06T12:58:04.390Z,17.60
2022-11-06T13:00:57.960Z,20.33
2022-11-06T13:03:33.396Z,14.23
2022-11-06T13:06:15.931Z,16.55
2022-11-06T13:09:04.835Z,14.88
2022-11-06T13:11:44.364Z,8.48
2022-11-06T13:14:34.764Z,13.18
2022-11-06T13:17:21.036Z,12.68
2022-11-06T13:20:03.807Z,14.35
2022-11-06T13:22:45.037Z,11.75
2022-11-06T13:25:40.307Z,15.38
2022-11-06T13:28:17.074Z,15.07
2022-11-06T13:30:45.510Z,15.18
2022-11-06T13:33:27.288Z,8.90
2022-11-06T13:35:57.649Z,11.18
2022-11-06T13:38:40.866Z,9.85
2022-11-06T13:41:28.367Z,12.77
2022-11-06T13:44:03.255Z,12.18
2022-11-06T13:46:49.470Z,16.02
2022-11-06T13:49:43.710Z,13.90
2022-11-06T13:52:16.809Z,14.55
2022-11-06T13:55:15.059Z,17.20
2022-11-06T13:58:08.249Z,8.38
2022-11-06T14:00:58.971Z,17.02
2022-11-06T14:03:40.658Z,12.90
2022-11-06T14:06:17.245Z,15.93
2022-11-06T14:08:49.459Z,7.47
2022-11-06T14:11:25.674Z,10.35
2022-11-06T14:14:04.008Z,19.08
2022-11-06T14:16:37.642Z,11.07
2022-11-06T14:19:12.412Z,9.73
2022-11-06T14:21:39.743Z,11.95
2022-11-06T14:24:28.002Z,9.93
2022-11-06T14:26:55.891Z,10.75
2022-11-06T14:29:28.251Z,10.93
2022-11-06T14:32:19.246Z,18.90
2022-11-06T14:34:48.602Z,10.70
2022-11-06T14:37:19.067Z,11.93
2022-11-06T14:39:52.287Z,10.93
2022-11-06T14:42:38.680Z,10.68
2022-11-06T14:45:17.655Z,13.73
2022-11-06T14:47:54.466Z,13.80
2022-11-06T14:50:35.920Z,16.17
2022-11-06T14:53:07.569Z,9.50
2022-11-06T14:55:56.700Z,11.43
2022-11-06T14:58:37.449Z,19.60
2022-11-06T15:01:10.684Z,16.73
2022-11-06T15:03:52.704Z,16.75
2022-11-06T15:06:28.894Z,32.28
2022-11-06T15:09:01.337Z,24.23
2022-11-06T15:11:47.453Z,26.65
2022-11-06T15:14:15.440Z,21.73
2022-11-06T15:16:55.980Z,25.30
2022-11-06T15:19:29.708Z,20.85
2022-11-06T15:22:05.754Z,23.67
2022-11-06T15:24:45.516Z,18.88
2022-11-06T15:27:18.183Z,16.70
2022-11-06T15:29:52.051Z,23.95
2022-11-06T15:32:29.690Z,30.83
2022-11-06T15:35:33.255Z,22.50
2022-11-06T15:38:15.642Z,19.88
2022-11-06T15:43:34.000Z,21.23
2022-11-06T15:46:12.376Z,19.55
2022-11-06T15:48:43.562Z,28.15
2022-11-06T15:51:40.331Z,29.85
2022-11-06T15:54:14.413Z,37.45
2022-11-06T15:56:46.809Z,26.17
2022-11-06T15:59:17.139Z,26.45
2022-11-06T16:01:49.024Z,19.30
2022-11-06T16:04:25.233Z,17.02
2022-11-06T16:06:54.979Z,27.08
2022-11-06T16:09:27.148Z,34.17
2022-11-06T16:11:59.048Z,45.35
2022-11-06T16:14:29.941Z,38.17
2022-11-06T16:17:13.539Z,46.17
2022-11-06T16:19:43.941Z,40.80
2022-11-06T16:22:15.061Z,47.75
2022-11-06T16:24:53.930Z,33.78
2022-11-06T16:27:23.499Z,34.50
2022-11-06T16:29:56.854Z,32.88
2022-11-06T16:32:27.084Z,41.85
2022-11-06T16:34:56.891Z,35.15
2022-11-06T16:37:32.563Z,47.33
2022-11-06T16:40:00.086Z,41.92
2022-11-06T16:42:31.403Z,39.65
2022-11-06T16:45:20.100Z,45.42
2022-11-06T16:48:05.946Z,56.83
2022-11-06T16:50:53.067Z,46.45
2022-11-06T16:53:23.457Z,54.55
2022-11-06T16:56:06.005Z,43.17
2022-11-06T16:58:44.330Z,45.00
2022-11-06T17:01:15.776Z,52.15
2022-11-06T17:03:49.836Z,44.28
2022-11-06T17:06:28.781Z,44.50
2022-11-06T17:09:09.689Z,50.22
2022-11-06T17:11:38.751Z,95.68
2022-11-06T17:14:21.351Z,87.65
2022-11-06T17:16:54.147Z,69.30
2022-11-06T17:19:22.607Z,53.10
2022-11-06T17:21:50.688Z,56.78
2022-11-06T17:27:08.760Z,58.08
2022-11-06T17:29:39.084Z,47.15
2022-11-06T17:32:10.937Z,55.08
2022-11-06T17:34:44.920Z,56.10
2022-11-06T17:37:12.692Z,52.95
2022-11-06T17:39:40.160Z,47.20
2022-11-06T17:42:07.407Z,55.85
2022-11-06T17:44:34.978Z,56.65
2022-11-06T17:47:06.676Z,54.97
2022-11-06T17:49:36.588Z,62.45
2022-11-06T17:52:03.810Z,57.38
2022-11-06T17:54:33.455Z,48.25
2022-11-06T17:57:02.749Z,59.08
2022-11-06T17:59:41.423Z,59.25
2022-11-06T18:02:34.863Z,57.85
2022-11-06T18:05:08.551Z,54.00
2022-11-06T18:07:40.303Z,48.45
2022-11-06T18:10:10.578Z,53.45
2022-11-06T18:12:40.463Z,54.25
2022-11-06T18:15:19.305Z,48.80
2022-11-06T18:17:48.976Z,50.13
2022-11-06T18:20:18.881Z,45.63
2022-11-06T18:22:45.981Z,53.58
2022-11-06T18:25:16.007Z,52.85
2022-11-06T18:27:43.218Z,48.05
2022-11-06T18:30:11.475Z,49.97
2022-11-06T18:32:44.246Z,47.38
2022-11-06T18:35:16.563Z,58.78
2022-11-06T18:37:46.231Z,53.95
2022-11-06T18:40:14.033Z,53.55
2022-11-06T18:42:45.753Z,47.20
2022-11-06T18:45:18.019Z,48.60
2022-11-06T18:47:45.176Z,43.28
2022-11-06T18:50:15.254Z,50.55
2022-11-06T18:52:57.615Z,49.17
2022-11-06T18:55:25.928Z,44.90
2022-11-06T18:57:53.981Z,54.72
2022-11-06T19:00:27.128Z,42.65
2022-11-06T19:02:56.956Z,51.80
2022-11-06T19:05:24.529Z,51.40
2022-11-06T19:08:00.361Z,48.10
2022-11-06T19:10:32.518Z,51.33
2022-11-06T19:12:59.870Z,52.20
2022-11-06T19:15:29.397Z,44.88
2022-11-06T19:17:58.875Z,56.83
2022-11-06T19:20:28.337Z,50.33
2022-11-06T19:22:56.006Z,50.40
2022-11-06T19:25:26.057Z,58.67
2022-11-06T19:27:55.540Z,54.45
2022-11-06T19:30:25.745Z,43.83
2022-11-06T19:32:55.215Z,49.60
2022-11-06T19:35:25.090Z,50.70
2022-11-06T19:37:52.331Z,49.03
2022-11-06T19:40:20.214Z,43.67
2022-11-06T19:42:49.768Z,58.67
2022-11-06T19:45:17.887Z,50.60
2022-11-06T19:47:52.731Z,43.90
2022-11-06T19:50:39.117Z,47.38
2022-11-06T19:53:09.548Z,49.15
2022-11-06T19:55:39.281Z,48.55
2022-11-06T19:58:08.607Z,46.17
2022-11-06T20:00:40.598Z,59.05
2022-11-06T20:03:08.553Z,50.60
2022-11-06T20:05:36.792Z,51.45
2022-11-06T20:08:11.501Z,49.90
2022-11-06T20:10:41.251Z,61.47
2022-11-06T20:13:16.361Z,49.20
2022-11-06T20:15:48.629Z,50.03
2022-11-06T20:18:17.932Z,54.53
2022-11-06T20:20:46.547Z,55.17
2022-11-06T20:23:18.333Z,53.20
2022-11-06T20:25:54.702Z,54.58
2022-11-06T20:28:22.106Z,50.58
2022-11-06T20:30:50.021Z,50.67
2022-11-06T20:33:17.774Z,50.92
2022-11-06T20:35:45.284Z,55.65
2022-11-06T20:38:16.592Z,44.08
2022-11-06T20:40:44.168Z,55.75
2022-11-06T20:43:14.131Z,48.10
2022-11-06T20:45:41.924Z,45.45
2022-11-06T20:48:13.801Z,57.00
2022-11-06T20:50:46.411Z,50.47
2022-11-06T20:53:19.240Z,49.58
2022-11-06T20:55:49.222Z,55.83
2022-11-06T20:58:19.020Z,57.53
2022-11-06T21:00:51.214Z,51.75
2022-11-06T21:03:21.248Z,55.45
2022-11-06T21:05:50.981Z,54.92
2022-11-06T21:08:20.152Z,62.20
2022-11-06T21:11:06.157Z,49.35
2022-11-06T21:13:38.012Z,50.78
2022-11-06T21:18:40.767Z,57.45
2022-11-06T21:21:21.649Z,64.03
2022-11-06T21:23:52.573Z,67.43
2022-11-06T21:26:42.810Z,67.75
2022-11-06T21:29:14.220Z,67.45
2022-11-06T21:31:48.594Z,63.30
2022-11-06T21:34:17.362Z,63.40
2022-11-06T21:36:45.336Z,55.58
2022-11-06T21:39:20.057Z,59.83
2022-11-06T21:41:49.922Z,55.80
2022-11-06T21:44:21.682Z,62.95
2022-11-06T21:46:49.740Z,56.95
2022-11-06T21:49:19.096Z,57.42
2022-11-06T21:51:50.904Z,67.00
2022-11-06T21:54:38.777Z,63.10
2022-11-06T21:57:15.743Z,60.75
2022-11-06T21:59:43.006Z,54.95
2022-11-06T22:02:10.757Z,56.80
2022-11-06T22:04:40.116Z,64.07
2022-11-06T22:07:07.706Z,60.38
2022-11-06T22:09:39.414Z,57.88
2022-11-06T22:12:14.288Z,56.67
2022-11-06T22:14:43.746Z,61.92
2022-11-06T22:17:13.202Z,61.05
2022-11-06T22:19:42.734Z,61.80
2022-11-06T22:22:10.700Z,59.58
2022-11-06T22:24:40.211Z,68.25
2022-11-06T22:27:12.333Z,63.58
2022-11-06T22:29:39.884Z,51.90
2022-11-06T22:32:09.472Z,54.60
2022-11-06T22:34:36.578Z,53.25
2022-11-06T22:37:04.212Z,51.83
2022-11-06T22:39:34.870Z,49.08
2022-11-06T22:42:09.919Z,60.33
2022-11-06T22:44:37.237Z,52.05
2022-11-06T22:47:09.637Z,46.92
2022-11-06T22:49:36.771Z,51.10
2022-11-06T22:52:15.582Z,42.78
2022-11-06T22:54:44.876Z,48.13
2022-11-06T22:57:12.206Z,40.15
2022-11-06T22:59:39.305Z,39.78
2022-11-06T23:02:06.790Z,43.60
2022-11-06T23:04:37.301Z,42.50
2022-11-06T23:07:06.964Z,39.30
2022-11-06T23:09:34.134Z,40.88
2022-11-06T23:12:03.927Z,43.92
2022-11-06T23:14:31.346Z,40.78
2022-11-06T23:16:59.043Z,48.17
2022-11-06T23:19:31.091Z,41.30
2022-11-06T23:22:17.521Z,42.83
2022-11-06T23:24:49.651Z,40.22
2022-11-06T23:27:20.625Z,36.25
2022-11-06T23:29:50.463Z,41.45
2022-11-06T23:32:19.973Z,37.78
2022-11-06T23:34:50.692Z,41.60
2022-11-06T23:37:17.872Z,39.95
2022-11-06T23:39:49.418Z,40.25
2022-11-06T23:42:19.062Z,36.65
2022-11-06T23:45:06.366Z,39.20
2022-11-06T23:47:36.573Z,49.47
2022-11-06T23:50:09.433Z,52.33
2022-11-06T23:52:36.732Z,35.40
2022-11-06T23:55:07.206Z,42.63
2022-11-06T23:57:34.375Z,46.22
